Terminal Aerodrome Forecast
Issued by NWS

Home | Current Version | Previous Version | Text Only | Print | Product List | Glossary Off
Versions: 1 2 3 4 5 6 7 8 9 10 11 12 13

104
FTUS45 KGGW 081122
TAFSDY
TAF
KSDY 081122Z 0812/0912 29010KT P6SM SCT110 WS020/32035KT
     FM081700 30015KT P6SM BKN100
     FM090000 30010KT P6SM SCT150
     FM090500 29006KT P6SM FEW150=

USA.gov is the U.S. government's official web portal to all federal, state and local government web resources and services.